Flight Track Log - Related Links

Times and Time Zones

All times are in EDT time to prevent confusion due to time zone crossing. See the AWI4054 flight status page for this flight to view local times or setup timezone preferences in your user account.

Time Position Orientation Groundspeed Altitude Reporting Facility
EDT Latitude Longitude Course Direction KTS MPH feet Rate Location/Type
Sun 11:21:43 AM 32.9358 -79.9375 13° North 276 318 5,600  Level Jacksonville Center
Sun 11:22:00 AM 33.2307 -79.9305 North  Level FlightAware Approximate
Sun 11:22:43 AM 33.0128 -79.9322 North 269 310 8,500  Level Jacksonville Center
Sun 11:23:00 AM 33.3182 -79.9076 23° Northeast  Level FlightAware Approximate
Sun 11:23:43 AM 33.0944 -79.9372 357° North 274 315 10,800  Level Jacksonville Center
Sun 11:24:00 AM 33.4035 -79.8760 North  Level FlightAware Approximate
Sun 11:24:43 AM 33.1758 -79.9419 357° North 280 322 13,000  Level Jacksonville Center
Sun 11:25:00 AM 33.4916 -79.8548 13° North  Level FlightAware Approximate
Sun 11:25:43 AM 33.2542 -79.9044 22° Northeast 285 328 14,800  Level Jacksonville Center
Sun 11:26:00 AM 33.5791 -79.8298 13° North  Level FlightAware Approximate
Sun 11:26:43 AM 33.3344 -79.8519 29° Northeast 301 346 16,500  Level Jacksonville Center
Sun 11:27:43 AM 33.4147 -79.8044 26° Northeast 312 359 17,800 1,350 Climbing Jacksonville Center
Sun 11:28:43 AM 33.4989 -79.7517 28° Northeast 324 373 19,200 1,300 Climbing Jacksonville Center
Sun 11:29:43 AM 33.5831 -79.6964 29° Northeast 324 373 20,400 1,350 Climbing Jacksonville Center
Sun 11:30:43 AM 33.6817 -79.6356 27° Northeast 343 395 21,900 1,250 Climbing Jacksonville Center
Sun 11:31:43 AM 33.7700 -79.5797 28° Northeast 349 402 22,900 1,050 Climbing Jacksonville Center
Sun 11:32:43 AM 33.8603 -79.5239 27° Northeast 355 409 24,000 950 Climbing Jacksonville Center
Sun 11:33:43 AM 33.9486 -79.4678 28° Northeast 355 409 24,800 850 Climbing Jacksonville Center
Sun 11:34:43 AM 34.0347 -79.4144 27° Northeast 365 420 25,700 821 Climbing Jacksonville Center
Sun 11:36:31 AM 34.2017 -79.3081 28° Northeast 364 419 27,100 714 Climbing Washington Center
Sun 11:37:31 AM 34.2956 -79.2444 29° Northeast 375 432 27,700 600 Climbing Washington Center
Sun 11:38:31 AM 34.3931 -79.1933 23° Northeast 381 438 28,300 545 Climbing Washington Center
Sun 11:39:32 AM 34.4811 -79.1117 37° Northeast 381 438 28,800 347 Climbing Washington Center
Sun 11:40:32 AM 34.5589 -79.0167 45° Northeast 381 438 29,000 98 Climbing Washington Center
Sun 11:41:34 AM 34.6428 -78.9242 42° Northeast 388 447 29,000 202 Level Washington Center
Sun 11:42:31 AM 34.7389 -78.8472 33° Northeast 401 461 29,400 458 Climbing Washington Center
Sun 11:43:32 AM 34.8425 -78.7933 23° Northeast 401 461 29,900 492 Climbing Washington Center
Sun 11:44:33 AM 34.9442 -78.7389 24° Northeast 401 461 30,400 555 Climbing Washington Center
Sun 11:45:31 AM 35.0458 -78.6819 25° Northeast 401 461 31,000 303 Climbing Washington Center
Sun 11:46:32 AM 35.1514 -78.6278 23° Northeast 401 461 31,000  Level Washington Center
Sun 11:47:31 AM 35.2572 -78.5706 24° Northeast 406 467 31,000  Level Washington Center
Sun 11:48:32 AM 35.3694 -78.5086 24° Northeast 417 480 31,000  Level Washington Center
Sun 11:49:32 AM 35.4794 -78.4489 24° Northeast 428 493 31,000  Level Washington Center
Sun 11:50:33 AM 35.5850 -78.3911 24° Northeast 443 510 31,000  Level Washington Center
Sun 11:51:33 AM 35.6969 -78.3311 24° Northeast 443 510 31,000  Level Washington Center
Sun 11:52:34 AM 35.8111 -78.2711 23° Northeast 443 510 31,000  Level Washington Center
Sun 11:53:31 AM 35.9250 -78.2083 24° Northeast 443 510 31,000 -454 Level Washington Center
Sun 11:54:33 AM 36.0392 -78.1478 23° Northeast 443 510 30,100 -976 Descending Washington Center
Sun 11:55:34 AM 36.1572 -78.0822 24° Northeast 448 516 29,000 -1,109 Descending Washington Center
Sun 11:56:32 AM 36.2756 -78.0139 25° Northeast 448 516 27,900 -1,017 Descending Washington Center
Sun 11:57:32 AM 36.3936 -77.9503 23° Northeast 453 521 27,000 -443 Descending Washington Center
Sun 11:58:34 AM 36.5225 -77.8767 25° Northeast 453 521 27,000  Level Washington Center
Sun 11:59:31 AM 36.6406 -77.8103 24° Northeast 453 521 27,000  Level Washington Center
Sun 12:00:32 PM 36.7564 -77.7489 23° Northeast 453 521 27,000  Level Washington Center
Sun 12:01:32 PM 36.8681 -77.6819 26° Northeast 448 516 27,000 -197 Level Washington Center
Sun 12:02:34 PM 36.9817 -77.6200 24° Northeast 441 507 26,600 -1,000 Descending Washington Center
Sun 12:03:32 PM 37.0914 -77.5578 24° Northeast 436 502 25,000 -1,576 Descending Washington Center
Sun 12:04:32 PM 37.1986 -77.4953 25° Northeast 426 490 23,500 -1,488 Descending Washington Center
Sun 12:05:33 PM 37.3006 -77.5186 350° North 368 423 22,000 -756 Descending Washington Center
Sun 12:06:31 PM 37.3614 -77.6300 305° West 328 377 22,000 -202 Level Washington Center
Sun 12:07:32 PM 37.4586 -77.6639 345° North 348 400 21,600 -934 Descending Washington Center
Sun 12:08:33 PM 37.5597 -77.6117 22° Northeast 348 400 20,100 -1,462 Descending Washington Center
Sun 12:09:31 PM 37.6483 -77.5564 26° Northeast 348 400 18,700 -1,261 Descending Washington Center
Sun 12:10:32 PM 37.7347 -77.5008 27° Northeast 348 400 17,600 -1,180 Descending Washington Center
Sun 12:11:33 PM 37.8189 -77.4503 25° Northeast 335 386 16,300 -1,230 Descending Washington Center
Sun 12:12:34 PM 37.8989 -77.3997 27° Northeast 327 376 15,100 -1,220 Descending Washington Center
Sun 12:13:31 PM 37.9853 -77.3492 25° Northeast 322 371 13,900 -1,231 Descending Washington Center
Sun 12:14:31 PM 38.0672 -77.2981 26° Northeast 327 376 12,700 -1,140 Descending Washington Center
Sun 12:15:32 PM 38.1492 -77.2525 24° Northeast 321 369 11,600 -1,041 Descending Washington Center
Sun 12:16:32 PM 38.2250 -77.2039 27° Northeast 309 356 10,600 -793 Descending Washington Center
Sun 12:17:33 PM 38.3047 -77.1686 19° North 304 350 10,000 -893 Descending Washington Center
Sun 12:18:33 PM 38.3864 -77.1386 16° North 299 344 8,800 -1,373 Descending Washington Center
Sun 12:19:31 PM 38.4639 -77.1111 16° North 294 338 7,300 -1,563 Descending Washington Center
Sun 12:20:32 PM 38.5414 -77.0781 18° North 289 333 5,700 -1,574 Descending Washington Center

Login

Don't have an account? Register now (free) for customized features, flight alerts, and more!